Time;durP1;ratioP1;P1;durP2;ratioP2;P2;SDS_P1;SDS_P2;PMS_P1;PMS_P2;Temp;Humidity;BMP_temperature;BMP_pressure;BME280_temperature;BME280_humidity;BME280_pressure;Samples;Min_cycle;Max_cycle;Signal;HPM_P1;HPM_P2
2023/10/25 00:02:11;;;;;;;6.78;0.88;;;;;;;18.32;60.18;98230.63;5308633;26;20047;-91
2023/10/25 00:04:37;;;;;;;0.98;0.52;;;;;;;18.14;60.16;98230.44;5308367;26;20091;-92
2023/10/25 00:07:02;;;;;;;4.37;1.20;;;;;;;18.12;60.16;98228.91;5308012;26;20428;-93
2023/10/25 00:09:28;;;;;;;0.00;0.00;;;;;;;18.40;60.18;98225.53;5312765;26;20310;-92
2023/10/25 00:11:54;;;;;;;0.43;0.43;;;;;;;18.31;60.17;98215.81;5308105;26;20079;-92
2023/10/25 00:14:19;;;;;;;0.00;0.00;;;;;;;18.08;60.17;98212.56;5308343;26;20060;-91
2023/10/25 00:16:45;;;;;;;0.03;0.03;;;;;;;18.10;60.17;98216.72;5308194;26;20067;-91
2023/10/25 00:19:10;;;;;;;0.47;0.45;;;;;;;18.19;60.17;98201.06;5308218;26;20354;-92
2023/10/25 00:21:36;;;;;;;0.20;0.20;;;;;;;18.17;60.17;98200.38;5307645;26;20331;-91
2023/10/25 00:24:01;;;;;;;0.93;0.88;;;;;;;18.14;60.16;98198.00;5308245;26;20108;-91
2023/10/25 00:26:27;;;;;;;0.00;0.00;;;;;;;18.15;60.16;98197.03;5307608;26;20100;-88
2023/10/25 00:28:52;;;;;;;1.30;1.20;;;;;;;18.14;60.16;98203.28;5309192;26;25342;-89
2023/10/25 00:31:18;;;;;;;0.37;0.37;;;;;;;18.20;60.16;98195.66;5309643;26;20040;-89
2023/10/25 00:33:43;;;;;;;2.17;1.00;;;;;;;18.05;60.16;98189.97;5307347;26;20088;-88
2023/10/25 00:36:08;;;;;;;2.65;1.45;;;;;;;18.55;60.19;98187.28;5307496;26;20092;-88
2023/10/25 00:38:34;;;;;;;12.18;2.60;;;;;;;18.29;60.17;98183.50;5307644;26;20103;-89
2023/10/25 00:40:59;;;;;;;0.08;0.08;;;;;;;18.23;60.18;98187.50;5307539;26;20044;-90
2023/10/25 00:43:25;;;;;;;1.55;1.45;;;;;;;18.37;60.18;98178.38;5307699;26;20060;-89
2023/10/25 00:46:01;;;;;;;5.68;2.00;;;;;;;18.37;60.18;98181.00;5307667;26;20366;-90
2023/10/25 00:48:30;;;;;;;2.15;1.70;;;;;;;18.48;60.18;98180.06;5308111;26;20094;-90
2023/10/25 00:50:55;;;;;;;0.00;0.00;;;;;;;18.46;60.19;98188.13;5308540;26;20062;-90
2023/10/25 00:53:21;;;;;;;0.62;0.40;;;;;;;18.49;60.19;98184.38;5307522;26;20057;-90
2023/10/25 00:55:47;;;;;;;2.65;1.45;;;;;;;18.48;60.19;98173.00;5289405;26;20061;-90
2023/10/25 00:58:12;;;;;;;10.77;2.75;;;;;;;18.62;60.20;98166.47;5308158;26;20074;-90
2023/10/25 01:00:38;;;;;;;0.93;0.85;;;;;;;18.65;60.19;98161.78;5325992;26;20063;-87
2023/10/25 01:03:06;;;;;;;0.00;0.00;;;;;;;18.62;60.20;98163.84;5307813;26;20075;-89
2023/10/25 01:05:31;;;;;;;0.15;0.15;;;;;;;18.62;60.18;98156.78;5289245;26;20096;-88
2023/10/25 01:07:57;;;;;;;0.03;0.03;;;;;;;18.41;60.18;98158.69;5307137;26;20105;-89
2023/10/25 01:10:22;;;;;;;5.57;1.30;;;;;;;18.42;60.18;98144.53;5326077;26;20652;-88
2023/10/25 01:12:47;;;;;;;3.37;1.17;;;;;;;18.55;60.19;98136.38;5307466;26;20084;-90
2023/10/25 01:15:13;;;;;;;0.03;0.03;;;;;;;18.67;60.19;98103.66;5307626;26;20171;-89
2023/10/25 01:17:38;;;;;;;4.80;2.12;;;;;;;18.47;60.18;98100.19;5307939;26;20135;-89
2023/10/25 01:20:04;;;;;;;0.00;0.00;;;;;;;18.48;60.19;98090.50;5307553;26;20081;-89
2023/10/25 01:22:30;;;;;;;0.80;0.80;;;;;;;18.50;60.18;98085.91;5289653;26;20060;-89
2023/10/25 01:24:55;;;;;;;5.40;1.87;;;;;;;18.55;60.19;98084.50;5307057;26;20052;-89
2023/10/25 01:27:21;;;;;;;17.62;1.08;;;;;;;18.45;60.18;98096.84;5307694;26;20375;-89
2023/10/25 01:29:47;;;;;;;1.12;1.02;;;;;;;18.46;60.17;98077.47;5307666;26;24128;-89
2023/10/25 01:32:12;;;;;;;2.58;1.15;;;;;;;18.45;60.18;98083.66;5308944;26;20142;-90
2023/10/25 01:34:37;;;;;;;1.55;1.40;;;;;;;18.51;60.18;98082.31;5308604;26;20385;-87
2023/10/25 01:37:03;;;;;;;2.50;1.15;;;;;;;18.46;60.19;98061.66;5308855;26;20406;-89
2023/10/25 01:39:29;;;;;;;17.40;1.00;;;;;;;18.51;60.18;98077.03;5309718;26;20139;-88
2023/10/25 01:41:54;;;;;;;0.37;0.37;;;;;;;18.44;60.18;98095.19;5329044;26;20425;-90
2023/10/25 01:44:19;;;;;;;0.43;0.40;;;;;;;18.33;60.18;98083.00;5312107;26;20118;-89
2023/10/25 01:46:45;;;;;;;17.33;1.70;;;;;;;18.22;60.17;98085.78;5307116;26;22471;-90
2023/10/25 01:49:10;;;;;;;2.15;1.33;;;;;;;18.30;60.17;98085.06;5307804;26;20086;-89
2023/10/25 01:51:36;;;;;;;3.40;0.98;;;;;;;18.39;60.19;98084.22;5307986;26;20075;-89
2023/10/25 01:54:01;;;;;;;1.17;1.08;;;;;;;18.32;60.18;98076.06;5307513;26;20130;-89
2023/10/25 01:56:26;;;;;;;2.72;1.40;;;;;;;18.29;60.17;98081.59;5305946;26;31643;-89
2023/10/25 01:58:52;;;;;;;0.30;0.30;;;;;;;18.25;60.18;98082.03;5307191;26;28016;-90
2023/10/25 02:01:17;;;;;;;0.00;0.00;;;;;;;18.45;60.18;98065.22;5307953;26;20076;-90
2023/10/25 02:03:42;;;;;;;0.82;0.82;;;;;;;18.51;60.18;98054.16;5307574;26;20120;-90
2023/10/25 02:06:12;;;;;;;3.72;2.05;;;;;;;18.33;60.17;98063.72;5326249;26;20068;-88
2023/10/25 02:08:38;;;;;;;0.20;0.20;;;;;;;18.36;60.17;98058.16;5326950;26;20052;-90
2023/10/25 02:11:04;;;;;;;0.00;0.00;;;;;;;18.27;60.17;98067.75;5308458;26;20127;-90
2023/10/25 02:13:29;;;;;;;0.30;0.30;;;;;;;18.41;60.18;98063.84;5309051;26;20069;-90
2023/10/25 02:15:54;;;;;;;0.25;0.25;;;;;;;18.23;60.18;98062.91;5309427;26;20052;-91
2023/10/25 02:18:20;;;;;;;2.00;1.45;;;;;;;18.24;60.18;98067.19;5309870;26;20044;-90
2023/10/25 02:20:45;;;;;;;0.25;0.25;;;;;;;18.20;60.17;98060.50;5310657;26;20108;-90
2023/10/25 02:23:11;;;;;;;0.22;0.22;;;;;;;18.26;60.17;98055.56;5329552;26;20103;-90
2023/10/25 02:25:36;;;;;;;4.25;1.95;;;;;;;18.25;60.17;98053.88;5307943;26;20061;-89
2023/10/25 02:28:01;;;;;;;6.60;0.85;;;;;;;18.32;60.18;98052.34;5307741;26;20099;-90
2023/10/25 02:30:27;;;;;;;0.00;0.00;;;;;;;18.39;60.17;98044.72;5307578;26;22149;-87
2023/10/25 02:32:52;;;;;;;0.22;0.22;;;;;;;18.45;60.18;98049.41;5307235;26;21306;-90
2023/10/25 02:35:18;;;;;;;0.80;0.75;;;;;;;18.28;60.17;98045.72;5307160;26;23665;-90
2023/10/25 02:37:43;;;;;;;0.00;0.00;;;;;;;18.34;60.17;98050.41;5307927;26;20064;-89
2023/10/25 02:40:09;;;;;;;1.75;1.37;;;;;;;18.37;60.17;98036.13;5307254;26;20444;-89
2023/10/25 02:42:35;;;;;;;0.37;0.10;;;;;;;18.29;60.17;98036.84;5309495;26;20681;-89
2023/10/25 02:45:01;;;;;;;0.60;0.60;;;;;;;18.39;60.17;98036.81;5310010;26;20799;-89
2023/10/25 02:47:26;;;;;;;1.00;0.55;;;;;;;18.30;60.17;98030.59;5289759;26;20086;-89
2023/10/25 02:49:51;;;;;;;0.40;0.40;;;;;;;18.41;60.18;98037.50;5308273;26;20116;-89
2023/10/25 02:52:17;;;;;;;0.17;0.17;;;;;;;18.28;60.17;98043.06;5325779;26;20056;-89
2023/10/25 02:54:42;;;;;;;3.50;1.65;;;;;;;18.36;60.17;98026.56;5306787;26;23903;-89
2023/10/25 02:57:08;;;;;;;0.20;0.20;;;;;;;18.44;60.18;98021.41;5325832;26;20094;-89
2023/10/25 02:59:34;;;;;;;0.10;0.10;;;;;;;18.48;60.18;98014.09;5307141;26;20111;-89
2023/10/25 03:01:59;;;;;;;0.35;0.35;;;;;;;18.49;60.19;98006.03;5289161;26;20480;-88
2023/10/25 03:04:24;;;;;;;0.85;0.68;;;;;;;18.47;60.19;98009.78;5310323;26;20079;-89
2023/10/25 03:06:50;;;;;;;1.02;0.98;;;;;;;18.55;60.19;98002.81;5306301;26;20102;-88
2023/10/25 03:09:15;;;;;;;0.15;0.15;;;;;;;18.61;60.19;98012.78;5306211;26;31177;-88
2023/10/25 03:11:40;;;;;;;0.20;0.10;;;;;;;18.50;60.19;98020.03;5324855;26;26436;-89
2023/10/25 03:14:06;;;;;;;0.20;0.20;;;;;;;18.50;60.18;98026.16;5325140;26;20040;-89
2023/10/25 03:16:31;;;;;;;0.20;0.15;;;;;;;18.69;60.20;98039.31;5307009;26;20060;-89
2023/10/25 03:18:57;;;;;;;0.45;0.43;;;;;;;18.63;60.19;98041.66;5306539;26;28795;-89
2023/10/25 03:21:22;;;;;;;0.20;0.20;;;;;;;18.39;60.19;98055.25;5307178;26;20076;-88
2023/10/25 03:23:47;;;;;;;0.00;0.00;;;;;;;17.98;60.15;98051.94;5309691;26;20090;-90
2023/10/25 03:26:13;;;;;;;0.28;0.28;;;;;;;17.25;60.12;98073.28;5308388;26;20063;-89
2023/10/25 03:28:38;;;;;;;0.00;0.00;;;;;;;16.80;60.09;98087.59;5307584;26;20405;-89
2023/10/25 03:31:04;;;;;;;0.37;0.37;;;;;;;16.67;60.09;98096.59;5306775;26;32104;-89
2023/10/25 03:33:30;;;;;;;0.20;0.10;;;;;;;16.27;60.07;98098.03;5289163;26;20051;-88
2023/10/25 03:35:55;;;;;;;1.85;0.65;;;;;;;16.08;60.05;98105.72;5325646;26;20086;-88
2023/10/25 03:38:21;;;;;;;0.85;0.75;;;;;;;15.86;60.04;98103.19;5307111;26;20090;-88
2023/10/25 03:40:47;;;;;;;0.10;0.10;;;;;;;15.86;60.04;98100.56;5306879;26;20107;-88
2023/10/25 03:43:12;;;;;;;2.30;0.35;;;;;;;15.82;60.04;98089.47;5288979;26;20299;-88
2023/10/25 03:45:37;;;;;;;0.20;0.20;;;;;;;15.66;60.03;98096.91;5326636;26;20044;-89
2023/10/25 03:48:03;;;;;;;0.25;0.25;;;;;;;15.44;60.02;98102.13;5307270;26;20119;-89
2023/10/25 03:50:28;;;;;;;0.00;0.00;;;;;;;15.50;60.03;98105.09;5307341;26;20067;-89
2023/10/25 03:52:54;;;;;;;0.30;0.30;;;;;;;15.39;60.01;98104.28;5307415;26;20064;-88
2023/10/25 03:55:20;;;;;;;0.55;0.35;;;;;;;15.41;60.02;98105.81;5308110;26;20083;-87
2023/10/25 03:57:45;;;;;;;0.65;0.50;;;;;;;15.16;60.00;98108.66;5327727;26;20075;-88
2023/10/25 04:00:11;;;;;;;0.00;0.00;;;;;;;15.07;60.00;98117.22;5310294;26;27756;-89
2023/10/25 04:02:36;;;;;;;0.37;0.37;;;;;;;15.02;60.00;98121.03;5306701;26;20076;-88
2023/10/25 04:05:02;;;;;;;2.62;1.12;;;;;;;15.00;59.99;98122.94;5307514;26;20045;-88
2023/10/25 04:07:27;;;;;;;0.30;0.30;;;;;;;14.87;60.00;98134.44;5307190;26;20080;-89
2023/10/25 04:09:53;;;;;;;0.68;0.37;;;;;;;15.02;59.99;98138.53;5306720;26;33649;-89
2023/10/25 04:12:18;;;;;;;0.10;0.05;;;;;;;15.12;60.01;98149.16;5306699;26;20062;-88
2023/10/25 04:14:46;;;;;;;0.60;0.60;;;;;;;14.99;59.99;98146.63;5307562;26;20389;-88
2023/10/25 04:17:12;;;;;;;0.98;0.98;;;;;;;15.12;60.01;98149.97;5306096;26;20682;-89
2023/10/25 04:19:38;;;;;;;0.10;0.10;;;;;;;15.13;60.00;98151.66;5309200;26;20064;-89
2023/10/25 04:22:04;;;;;;;0.17;0.17;;;;;;;15.09;60.00;98157.25;5289566;26;20063;-89
2023/10/25 04:24:30;;;;;;;1.45;0.80;;;;;;;15.19;60.01;98161.69;5307456;26;20063;-88
2023/10/25 04:26:55;;;;;;;1.10;0.55;;;;;;;15.24;60.00;98161.34;5306891;26;20126;-88
2023/10/25 04:29:20;;;;;;;0.30;0.20;;;;;;;15.21;60.01;98162.41;5306609;26;20361;-87
2023/10/25 04:31:46;;;;;;;0.32;0.32;;;;;;;15.14;60.00;98173.44;5306142;26;20097;-90
2023/10/25 04:34:11;;;;;;;0.25;0.25;;;;;;;15.00;59.99;98175.34;5306514;26;20102;-88
2023/10/25 04:36:38;;;;;;;0.20;0.20;;;;;;;15.10;60.01;98174.63;5306660;26;20127;-85
2023/10/25 04:39:03;;;;;;;1.67;1.30;;;;;;;15.13;60.01;98171.78;5307061;26;20060;-87
2023/10/25 04:41:29;;;;;;;0.98;0.40;;;;;;;15.15;60.00;98173.34;5328461;26;20433;-89
2023/10/25 04:43:54;;;;;;;0.20;0.10;;;;;;;15.15;60.00;98169.91;5306987;26;20420;-89
2023/10/25 04:46:20;;;;;;;0.45;0.45;;;;;;;15.10;60.01;98169.38;5325560;26;20106;-88
2023/10/25 04:48:45;;;;;;;0.00;0.00;;;;;;;15.03;60.00;98184.75;5326321;26;22001;-88
2023/10/25 04:51:13;;;;;;;0.00;0.00;;;;;;;15.13;60.01;98182.25;5326637;26;20071;-88
2023/10/25 04:53:43;;;;;;;0.57;0.57;;;;;;;15.12;60.01;98186.66;5325842;26;20063;-87
2023/10/25 04:56:09;;;;;;;1.42;0.28;;;;;;;15.20;60.01;98186.94;5289408;26;20064;-87
2023/10/25 04:58:34;;;;;;;0.88;0.88;;;;;;;15.16;60.00;98182.06;5324626;26;20115;-87
2023/10/25 05:00:59;;;;;;;0.00;0.00;;;;;;;14.97;60.00;98199.16;5310008;26;20071;-86
2023/10/25 05:03:25;;;;;;;2.20;0.85;;;;;;;14.84;59.99;98200.16;5307921;26;32183;-86
2023/10/25 05:05:50;;;;;;;0.68;0.65;;;;;;;14.85;59.99;98202.66;5307469;26;20087;-87
2023/10/25 05:08:16;;;;;;;0.52;0.40;;;;;;;14.79;59.99;98197.88;5307622;26;23539;-89
2023/10/25 05:10:42;;;;;;;0.10;0.10;;;;;;;14.78;59.98;98211.94;5308064;26;20091;-90
2023/10/25 05:13:07;;;;;;;0.10;0.10;;;;;;;14.71;59.99;98214.19;5309398;26;20052;-89
2023/10/25 05:15:35;;;;;;;1.10;1.00;;;;;;;14.72;59.99;98220.25;5309560;26;20428;-87
2023/10/25 05:18:01;;;;;;;0.10;0.10;;;;;;;14.67;59.99;98215.34;5328457;26;20070;-90
2023/10/25 05:20:27;;;;;;;0.00;0.00;;;;;;;14.63;59.97;98226.13;5318969;26;20049;-90
2023/10/25 05:22:52;;;;;;;0.65;0.65;;;;;;;14.77;59.98;98225.16;5306839;26;20037;-89
2023/10/25 05:25:18;;;;;;;0.00;0.00;;;;;;;14.67;59.98;98223.22;5321421;26;20060;-89
2023/10/25 05:27:44;;;;;;;1.08;1.05;;;;;;;14.50;59.97;98233.22;5290860;26;20093;-89
2023/10/25 05:30:12;;;;;;;2.00;0.62;;;;;;;14.52;59.97;98239.19;5308757;26;20119;-88
2023/10/25 05:32:38;;;;;;;0.20;0.20;;;;;;;14.64;59.98;98233.88;5309898;26;20314;-88
2023/10/25 05:35:05;;;;;;;0.10;0.10;;;;;;;14.59;59.98;98240.41;5308787;26;20075;-89
2023/10/25 05:37:31;;;;;;;0.22;0.22;;;;;;;14.61;59.98;98243.75;5307744;26;20131;-90
2023/10/25 05:39:57;;;;;;;0.20;0.20;;;;;;;14.64;59.98;98243.53;5326050;26;20393;-89
2023/10/25 05:42:23;;;;;;;3.65;1.12;;;;;;;14.76;59.98;98258.38;5291303;26;20060;-90
2023/10/25 05:44:51;;;;;;;0.03;0.03;;;;;;;14.68;59.98;98247.63;5328968;26;20162;-89
2023/10/25 05:47:17;;;;;;;0.40;0.40;;;;;;;14.61;59.98;98260.28;5312640;26;20061;-90
2023/10/25 05:49:42;;;;;;;0.20;0.20;;;;;;;14.61;59.98;98268.16;5315459;26;20031;-90
2023/10/25 05:52:10;;;;;;;0.77;0.77;;;;;;;14.60;59.98;98281.34;5325476;26;20021;-91
2023/10/25 05:54:35;;;;;;;1.20;0.47;;;;;;;14.65;59.98;98276.63;5303616;26;20078;-91
2023/10/25 05:57:02;;;;;;;0.45;0.45;;;;;;;14.48;59.98;98285.69;5308597;26;20056;-89
2023/10/25 05:59:28;;;;;;;0.40;0.40;;;;;;;14.41;59.97;98300.94;5308315;26;20056;-90
2023/10/25 06:02:10;;;;;;;5.37;0.77;;;;;;;14.47;59.97;98298.91;5308140;26;20050;-90
2023/10/25 06:04:39;;;;;;;0.35;0.35;;;;;;;14.46;59.97;98311.16;5346035;26;20066;-90
2023/10/25 06:07:06;;;;;;;0.53;0.33;;;;;;;14.63;59.97;98326.50;5290136;26;20061;-90
2023/10/25 06:09:31;;;;;;;0.00;0.00;;;;;;;14.54;59.97;98336.78;5289462;26;20064;-90
2023/10/25 06:11:57;;;;;;;0.15;0.15;;;;;;;14.64;59.98;98338.63;5288705;26;20423;-90
2023/10/25 06:14:23;;;;;;;0.20;0.05;;;;;;;14.66;59.98;98347.22;5311529;26;20049;-90
2023/10/25 06:16:49;;;;;;;0.22;0.22;;;;;;;14.66;59.98;98356.84;5308370;26;20149;-90
2023/10/25 06:19:14;;;;;;;1.12;1.02;;;;;;;14.63;59.98;98355.28;5306545;26;20126;-91
2023/10/25 06:21:39;;;;;;;0.13;0.13;;;;;;;14.75;59.98;98366.69;5305757;26;35031;-90
2023/10/25 06:24:05;;;;;;;0.77;0.43;;;;;;;14.91;59.99;98371.69;5306334;26;31616;-90
2023/10/25 06:26:30;;;;;;;0.20;0.17;;;;;;;14.84;59.98;98376.50;5306315;26;20076;-90
2023/10/25 06:28:56;;;;;;;1.33;1.27;;;;;;;14.80;59.99;98380.31;5306699;26;20437;-91
2023/10/25 06:31:21;;;;;;;0.70;0.55;;;;;;;14.83;59.98;98387.94;5306733;26;20064;-90
2023/10/25 06:33:47;;;;;;;0.10;0.10;;;;;;;14.97;60.00;98386.97;5307088;26;20084;-92
2023/10/25 06:36:13;;;;;;;0.03;0.03;;;;;;;14.83;59.99;98398.41;5308551;26;20079;-91
2023/10/25 06:38:38;;;;;;;2.75;1.08;;;;;;;14.73;59.99;98400.03;5306873;26;20494;-92
2023/10/25 06:41:04;;;;;;;0.62;0.22;;;;;;;14.77;59.98;98411.12;5306551;26;20040;-91
2023/10/25 06:43:30;;;;;;;0.35;0.35;;;;;;;14.88;59.99;98409.41;5288586;26;20079;-91
2023/10/25 06:45:57;;;;;;;0.10;0.10;;;;;;;14.85;59.99;98400.94;5288138;26;20078;-92
2023/10/25 06:48:23;;;;;;;0.25;0.25;;;;;;;14.81;59.99;98396.84;5306996;26;20044;-91
2023/10/25 06:50:50;;;;;;;0.40;0.40;;;;;;;14.70;59.98;98389.78;5306505;26;20082;-91
2023/10/25 06:53:17;;;;;;;0.32;0.32;;;;;;;14.66;59.98;98390.91;5307109;26;20084;-92
2023/10/25 06:55:42;;;;;;;1.27;0.55;;;;;;;14.79;59.98;98388.28;5328332;26;20779;-92
2023/10/25 06:58:10;;;;;;;0.00;0.00;;;;;;;14.89;59.99;98387.50;5290423;26;20076;-91
2023/10/25 07:00:37;;;;;;;0.10;0.10;;;;;;;15.11;60.01;98376.31;5306934;26;20131;-92
2023/10/25 07:03:03;;;;;;;0.00;0.00;;;;;;;15.06;60.00;98373.19;5306524;26;20061;-91
2023/10/25 07:05:28;;;;;;;0.25;0.15;;;;;;;15.01;59.99;98388.41;5306776;26;20064;-92
2023/10/25 07:07:54;;;;;;;0.35;0.20;;;;;;;15.14;60.00;98383.97;5306578;26;20097;-93
2023/10/25 07:10:20;;;;;;;0.00;0.00;;;;;;;15.31;60.01;98386.19;5306067;26;20480;-93
2023/10/25 07:12:45;;;;;;;0.30;0.30;;;;;;;15.44;60.02;98398.41;5288223;26;20146;-91
2023/10/25 07:15:11;;;;;;;0.17;0.17;;;;;;;15.33;60.01;98393.94;5291705;26;20048;-92
2023/10/25 07:17:37;;;;;;;2.15;1.45;;;;;;;15.36;60.01;98396.34;5324864;26;20068;-93
2023/10/25 07:20:09;;;;;;;0.00;0.00;;;;;;;15.43;60.02;98378.41;5306815;26;20062;-91
2023/10/25 07:22:35;;;;;;;0.50;0.32;;;;;;;15.59;60.03;98384.19;5325067;26;20071;-92
2023/10/25 07:25:00;;;;;;;0.22;0.22;;;;;;;15.44;60.02;98375.66;5312348;26;20120;-92
2023/10/25 07:27:26;;;;;;;0.10;0.10;;;;;;;15.57;60.03;98380.81;5307155;26;27680;-93
2023/10/25 07:29:51;;;;;;;0.73;0.47;;;;;;;15.71;60.04;98377.22;5306405;26;20063;-93
2023/10/25 07:32:16;;;;;;;0.35;0.35;;;;;;;15.71;60.04;98378.06;5307047;26;20056;-91
2023/10/25 07:34:42;;;;;;;0.00;0.00;;;;;;;15.93;60.04;98388.59;5306588;26;20087;-91
2023/10/25 07:37:07;;;;;;;0.57;0.57;;;;;;;16.10;60.06;98384.72;5306300;26;20070;-91
2023/10/25 07:39:33;;;;;;;2.05;1.27;;;;;;;16.01;60.04;98380.16;5306146;26;20076;-92
2023/10/25 07:41:59;;;;;;;0.10;0.10;;;;;;;15.89;60.05;98395.03;5306361;26;20078;-91
2023/10/25 07:44:24;;;;;;;0.77;0.77;;;;;;;15.96;60.05;98404.12;5288278;26;20060;-92
2023/10/25 07:46:50;;;;;;;0.00;0.00;;;;;;;16.17;60.06;98413.94;5306555;26;20122;-92
2023/10/25 07:49:15;;;;;;;0.80;0.50;;;;;;;16.31;60.06;98410.25;5307834;26;20066;-91
2023/10/25 07:51:40;;;;;;;0.45;0.20;;;;;;;16.47;60.07;98429.97;5307862;26;20112;-92
2023/10/25 07:54:06;;;;;;;0.30;0.30;;;;;;;16.19;60.06;98433.03;5305852;26;20052;-94
2023/10/25 07:56:31;;;;;;;0.52;0.52;;;;;;;16.18;60.06;98428.75;5324638;26;20044;-92
2023/10/25 07:58:57;;;;;;;0.28;0.28;;;;;;;16.37;60.06;98417.69;5306116;26;20084;-92
2023/10/25 08:01:23;;;;;;;0.32;0.22;;;;;;;16.42;60.07;98433.91;5306339;26;20468;-92
2023/10/25 08:03:48;;;;;;;0.00;0.00;;;;;;;16.41;60.07;98448.84;5306301;26;20074;-92
2023/10/25 08:06:14;;;;;;;0.03;0.03;;;;;;;16.51;60.08;98448.97;5306552;26;20082;-93
2023/10/25 08:08:39;;;;;;;0.10;0.10;;;;;;;16.62;60.08;98454.25;5306246;26;20338;-94
2023/10/25 08:11:05;;;;;;;1.15;0.25;;;;;;;16.63;60.09;98461.16;5326980;26;20071;-92
2023/10/25 08:13:32;;;;;;;0.00;0.00;;;;;;;16.62;60.08;98459.50;5306222;26;20088;-93
2023/10/25 08:16:01;;;;;;;0.32;0.32;;;;;;;16.81;60.09;98459.78;5306371;26;20118;-92
2023/10/25 08:18:27;;;;;;;0.20;0.20;;;;;;;17.11;60.11;98455.69;5287886;26;20036;-93
2023/10/25 08:20:53;;;;;;;2.15;0.30;;;;;;;17.12;60.11;98460.00;5306718;26;20056;-93
2023/10/25 08:23:19;;;;;;;0.00;0.00;;;;;;;17.13;60.11;98451.97;5289240;26;20131;-92
2023/10/25 08:25:44;;;;;;;0.00;0.00;;;;;;;17.38;60.11;98455.28;5306906;26;20072;-91
2023/10/25 08:28:10;;;;;;;0.00;0.00;;;;;;;17.29;60.12;98451.59;5309122;26;20131;-94
2023/10/25 08:30:35;;;;;;;0.45;0.30;;;;;;;17.41;60.12;98453.22;5307692;26;20090;-93
2023/10/25 08:33:00;;;;;;;0.00;0.00;;;;;;;17.50;60.12;98456.91;5306916;26;20429;-92
2023/10/25 08:35:26;;;;;;;0.32;0.32;;;;;;;17.47;60.13;98451.91;5325161;26;20139;-92
2023/10/25 08:37:51;;;;;;;0.03;0.03;;;;;;;17.39;60.12;98476.19;5307155;26;20052;-92
2023/10/25 08:40:17;;;;;;;0.00;0.00;;;;;;;17.45;60.12;98491.47;5306941;26;20056;-92
2023/10/25 08:42:42;;;;;;;0.13;0.13;;;;;;;17.63;60.12;98498.87;5306811;26;20080;-91
2023/10/25 08:45:08;;;;;;;0.15;0.15;;;;;;;17.59;60.13;98519.31;5307007;26;20365;-92
2023/10/25 08:47:35;;;;;;;0.22;0.22;;;;;;;17.51;60.13;98529.63;5288882;26;20373;-92
2023/10/25 08:50:04;;;;;;;0.13;0.13;;;;;;;17.40;60.13;98525.22;5309988;26;20068;-91
2023/10/25 08:52:29;;;;;;;0.00;0.00;;;;;;;17.21;60.11;98525.00;5289294;26;20091;-92
2023/10/25 08:54:54;;;;;;;0.45;0.40;;;;;;;17.29;60.12;98546.28;5307695;26;20064;-91
2023/10/25 08:57:20;;;;;;;0.00;0.00;;;;;;;17.46;60.12;98548.41;5308108;26;20123;-90
2023/10/25 08:59:46;;;;;;;0.10;0.10;;;;;;;17.44;60.12;98547.69;5307602;26;20072;-92
2023/10/25 09:02:12;;;;;;;0.00;0.00;;;;;;;17.45;60.12;98544.09;5307097;26;20139;-93
2023/10/25 09:04:57;;;;;;;0.00;0.00;;;;;;;17.57;60.13;98544.94;5306964;26;20053;-91
2023/10/25 09:07:36;;;;;;;0.32;0.32;;;;;;;17.62;60.13;98541.94;5288710;26;20075;-92
2023/10/25 09:10:10;;;;;;;0.30;0.30;;;;;;;17.83;60.14;98552.56;5289487;26;20040;-92
2023/10/25 09:12:35;;;;;;;0.20;0.20;;;;;;;17.84;60.14;98555.06;5306890;26;20435;-92
2023/10/25 09:15:01;;;;;;;0.98;0.45;;;;;;;17.92;60.15;98564.97;5305862;26;26341;-91
2023/10/25 09:17:26;;;;;;;0.10;0.10;;;;;;;17.93;60.16;98577.16;5306610;26;20116;-92
2023/10/25 09:19:52;;;;;;;0.00;0.00;;;;;;;17.94;60.16;98584.09;5306627;26;20084;-91
2023/10/25 09:22:21;;;;;;;0.00;0.00;;;;;;;17.69;60.13;98587.88;5307361;26;20063;-92
2023/10/25 09:24:47;;;;;;;0.00;0.00;;;;;;;17.54;60.13;98589.06;5306860;26;20060;-92
2023/10/25 09:27:13;;;;;;;0.00;0.00;;;;;;;17.44;60.12;98586.31;5306924;26;20071;-90
2023/10/25 09:29:38;;;;;;;0.10;0.10;;;;;;;17.80;60.15;98590.50;5309304;26;20084;-92
2023/10/25 09:32:07;;;;;;;0.00;0.00;;;;;;;17.95;60.15;98602.41;5306237;26;20549;-93
2023/10/25 09:34:34;;;;;;;0.32;0.32;;;;;;;18.02;60.16;98605.41;5288941;26;20060;-91
2023/10/25 09:37:00;;;;;;;0.00;0.00;;;;;;;17.99;60.15;98600.41;5288959;26;20071;-91
2023/10/25 09:39:25;;;;;;;4.70;0.90;;;;;;;18.01;60.16;98588.78;5288370;26;20453;-91
2023/10/25 09:41:52;;;;;;;0.00;0.00;;;;;;;18.02;60.16;98589.59;5324497;26;20123;-91
2023/10/25 09:44:18;;;;;;;0.10;0.10;;;;;;;17.95;60.15;98578.72;5306453;26;20436;-91
2023/10/25 09:46:45;;;;;;;0.00;0.00;;;;;;;17.86;60.15;98592.63;5307094;26;20111;-91
2023/10/25 09:49:11;;;;;;;0.45;0.45;;;;;;;18.08;60.15;98599.63;5288825;26;20065;-90
2023/10/25 09:51:59;;;;;;;0.20;0.20;;;;;;;18.22;60.16;98603.81;5306887;26;20070;-92
2023/10/25 09:54:30;;;;;;;0.00;0.00;;;;;;;18.63;60.20;98608.31;5307346;26;20432;-89
2023/10/25 09:56:56;;;;;;;0.32;0.10;;;;;;;18.61;60.18;98604.94;5289376;26;20113;-89
2023/10/25 09:59:22;;;;;;;5.18;0.90;;;;;;;18.57;60.19;98591.19;5308367;26;20155;-92
2023/10/25 10:01:47;;;;;;;0.20;0.20;;;;;;;18.85;60.19;98591.53;5309721;26;20072;-93
2023/10/25 10:04:41;;;;;;;0.28;0.28;;;;;;;18.98;60.21;98584.28;5315378;26;20080;-92
2023/10/25 10:07:35;;;;;;;0.00;0.00;;;;;;;19.04;60.21;98578.47;5324710;26;20447;-90
2023/10/25 10:10:22;;;;;;;0.20;0.20;;;;;;;18.98;60.21;98584.28;5345186;26;20057;-92
2023/10/25 10:12:48;;;;;;;0.00;0.00;;;;;;;18.84;60.19;98585.44;5288856;26;20052;-93
2023/10/25 10:15:14;;;;;;;1.27;0.43;;;;;;;18.68;60.19;98588.50;5306389;26;20077;-92
2023/10/25 10:17:43;;;;;;;0.00;0.00;;;;;;;19.08;60.21;98590.41;5306915;26;20130;-92
2023/10/25 10:20:21;;;;;;;0.20;0.20;;;;;;;19.15;60.22;98593.34;5288167;26;20061;-92
2023/10/25 10:23:06;;;;;;;0.20;0.20;;;;;;;19.12;60.21;98602.38;5288732;26;20204;-92
2023/10/25 10:25:50;;;;;;;0.45;0.22;;;;;;;19.06;60.20;98588.88;5289321;26;20067;-90
2023/10/25 10:28:16;;;;;;;0.17;0.17;;;;;;;19.19;60.22;98587.72;5288810;26;20425;-94
2023/10/25 10:30:42;;;;;;;0.00;0.00;;;;;;;19.29;60.22;98585.09;5306369;26;20085;-91
2023/10/25 10:33:11;;;;;;;0.00;0.00;;;;;;;19.44;60.23;98577.69;5306272;26;20064;-94
2023/10/25 10:35:46;;;;;;;0.08;0.08;;;;;;;19.41;60.23;98575.31;5288437;26;20470;-93
2023/10/25 10:38:12;;;;;;;0.00;0.00;;;;;;;19.45;60.23;98576.72;5288651;26;20099;-92
2023/10/25 10:40:38;;;;;;;0.10;0.10;;;;;;;19.69;60.24;98579.03;5306414;26;20105;-94
2023/10/25 10:43:06;;;;;;;0.13;0.13;;;;;;;19.88;60.26;98572.00;5306666;26;20076;-93
2023/10/25 10:45:31;;;;;;;0.25;0.20;;;;;;;20.03;60.27;98574.22;5308248;26;20057;-93
2023/10/25 10:48:09;;;;;;;0.00;0.00;;;;;;;20.04;60.27;98567.97;5306521;26;20082;-91
2023/10/25 10:50:38;;;;;;;0.15;0.15;;;;;;;20.09;60.27;98571.03;5306926;26;20071;-92
2023/10/25 10:53:03;;;;;;;0.10;0.10;;;;;;;20.21;60.27;98564.66;5288267;26;20064;-92
2023/10/25 10:55:29;;;;;;;0.00;0.00;;;;;;;20.26;60.27;98557.12;5306212;26;20095;-93
2023/10/25 10:57:54;;;;;;;0.00;0.00;;;;;;;20.30;60.28;98566.44;5306251;26;20305;-92
2023/10/25 11:00:19;;;;;;;0.00;0.00;;;;;;;20.35;60.28;98555.50;5306517;26;20057;-92
2023/10/25 11:02:49;;;;;;;0.00;0.00;;;;;;;20.26;60.27;98556.31;5305783;26;24015;-92
2023/10/25 11:05:15;;;;;;;0.00;0.00;;;;;;;20.35;60.28;98553.69;5291600;26;20052;-92
2023/10/25 11:07:41;;;;;;;0.00;0.00;;;;;;;20.22;60.27;98550.47;5288403;26;20052;-92
2023/10/25 11:10:07;;;;;;;0.22;0.22;;;;;;;20.23;60.27;98541.56;5306479;26;20079;-93
2023/10/25 11:12:32;;;;;;;0.00;0.00;;;;;;;20.36;60.28;98562.44;5306457;26;20056;-92
2023/10/25 11:15:01;;;;;;;0.20;0.10;;;;;;;20.13;60.27;98546.88;5306217;26;20062;-93
2023/10/25 11:17:26;;;;;;;0.00;0.00;;;;;;;20.13;60.27;98556.59;5288336;26;20122;-93
2023/10/25 11:19:52;;;;;;;0.10;0.10;;;;;;;19.98;60.26;98547.41;5301574;26;108605;-91
2023/10/25 11:22:17;;;;;;;1.87;0.93;;;;;;;19.99;60.27;98541.97;5324749;26;20108;-93
2023/10/25 11:24:46;;;;;;;0.00;0.00;;;;;;;20.14;60.27;98539.78;5308371;26;20471;-93
2023/10/25 11:27:12;;;;;;;0.13;0.13;;;;;;;20.37;60.28;98538.50;5287879;26;20052;-90
2023/10/25 11:29:37;;;;;;;0.00;0.00;;;;;;;20.66;60.30;98527.94;5306022;26;20090;-91
2023/10/25 11:32:06;;;;;;;0.00;0.00;;;;;;;20.87;60.30;98534.84;5306247;26;20071;-93